To NAV CANADA Home Page Login to a new session Search on AWWS site Disclaimer Vers la page française équivalente Tips FAQ What's new on the site To the Forecasts and Observations / NOTAM section To "File a Flight Plan" website Publications and other links Update of the User's profile FIC Telephone Numbers My Weather Data Folder Route Weather Data Regional Weather Data Local Weather Data To the Forecasts and Observations / NOTAM section
Request Generated 02/25/2018 at 11:44:33 UTC . Weather information available at that time is displayed.

METAR/TAF

WINDSOR/ON    

SPECI CYQG 251111Z 22016G23KT 7SM BKN026 09/08 A2953 RMK SC7 SLP005=
METAR CYQG 251100Z 23020G28KT 7SM FEW006 BKN028 BKN060 10/09 A2952
RMK NS1SC5SC1 INTMT -RA SLP002=
SPECI CYQG 251040Z CCA 22019KT 4SM -RA BR SCT005 OVC011 09/09 A2951
RMK SF4NS4 PRESRR SLP999=
SPECI CYQG 251040Z 22019KT 4SM -RA BR OVC013 09/09 A2951 RMK NS8
PRESRR SLP999=
SPECI CYQG 251031Z CCA 21013KT 4SM -RA BR BKN003 OVC011 08/08 A2950
RMK NS6SC2 -RA INTMT SLP993=
SPECI CYQG 251031Z 21013KT 4SM -RA BR BKN003 OVC011 08/08 A2950 RMK
NS6SC2 SLP993=
SPECI CYQG 251024Z 19011KT 4SM BR BKN003 OVC012 08/08 A2949 RMK
NS5SC3 SLP991=
METAR CYQG 251000Z 18011KT 2 1/2SM -RA BR OVC003 07/07 A2948 RMK NS8
SLP988=
SPECI CYQG 250944Z 17012KT 2SM -RA BR OVC002 06/06 A2949 RMK NS8
SLP992=
SPECI CYQG 250922Z 14009KT 1 1/2SM R25/5500FT/U -RA BR OVC002 05/05
A2949 RMK NS8 SLP992=
METAR CYQG 250900Z 13009KT 3/8SM R25/4500FT/N FG OVC001 05/05 A2950
RMK FG3NS5 INTMT -RA SLP996=

TAF CYQG 251139Z 2512/2612 25025G40KT P6SM FEW006 SCT015 OVC030 TEMPO
2512/2514 SCT006 OVC015
FM251400 25020G35KT P6SM SCT020
FM252300 25015KT P6SM SCT025
BECMG 2605/2606 25010KT
RMK NXT FCST BY 251800Z=

LONDON/ON    

METAR CYXU 251100Z 13009G15KT 2 1/2SM -RA BR OVC002 04/04 A2952 RMK
FG1SF7 SLP007=
METAR CYXU 251000Z 11016KT 2SM -RA BR OVC002 03/02 A2954 RMK FG2NS6
PRESFR SLP013=
SPECI CYXU 250945Z 11012G25KT 2SM -RA BR OVC001 03/02 A2956 RMK
FG2NS6 PRESFR SLP020=
METAR CYXU 250900Z 10018G23KT 3SM BR OVC002 02/02 A2960 RMK SF8
SLP033=

TAF CYXU 251139Z 2512/2612 14015KT 2SM -RA BR OVC003 TEMPO 2512/2513
6SM BR OVC006
BECMG 2512/2513 21015G30KT
FM251300 25020G40KT P6SM SCT008 TEMPO 2513/2514 BKN008
FM251700 24020G30KT P6SM SCT020
BECMG 2522/2524 25015G25KT
BECMG 2603/2605 24010KT
FM260900 25010KT P6SM BKN020
RMK NXT FCST BY 251800Z=

SARNIA (CHRIS HADFIELD)/ON    (show WxCam)

SPECI CYZR 251131Z AUTO 21013G20KT 7SM OVC006 08/08 A2948 RMK SLP988=
SPECI CYZR 251125Z AUTO 20013G19KT 5SM BR OVC006 08/08 A2948 RMK
SLP988=
SPECI CYZR 251121Z AUTO 20012G19KT 5SM -RA BR OVC006 08/08 A2948 RMK
SLP987=
SPECI CYZR 251118Z AUTO 20012G17KT 6SM -RA BR OVC006 08/08 A2947 RMK
SLP986=
METAR CYZR 251100Z AUTO 19014G20KT 4SM -RA BR OVC006 08/08 A2947 RMK
SLP984=
SPECI CYZR 251049Z AUTO 18012G19KT 5SM -RA BR BKN006 OVC012 08/07
A2947 RMK SLP984=
SPECI CYZR 251032Z AUTO 17014G24KT 9SM -RA BKN006 BKN012 OVC019 08/07
A2946 RMK SLP983=
SPECI CYZR 251026Z AUTO 16017G24KT 9SM -RA SCT006 BKN010 OVC016 07/07
A2945 RMK SLP980=
METAR CYZR 251000Z AUTO 15019G26KT 7SM -RA OVC006 07/07 A2947 RMK
SLP984=
SPECI CYZR 250928Z AUTO 15017G27KT 7SM -RA OVC006 06/06 A2948 RMK
SLP991=
SPECI CYZR 250921Z AUTO 14020G27KT 5SM -RA BR OVC006 06/06 A2949 RMK
SLP992=
SPECI CYZR 250915Z AUTO 14020G29KT 8SM -RA OVC006 06/06 A2949 RMK
SLP993=
METAR CYZR 250900Z AUTO 14020G29KT 9SM OVC006 06/05 A2950 RMK PRESFR
SLP995=

TAF CYZR 250839Z 2509/2521 14015G25KT P6SM OVC006 TEMPO 2509/2512
21/2SM -RA BR OVC003 PROB30 2509/2511 1/2SM -SHRA FG OVC002
FM251200 24015G32KT P6SM BKN020 TEMPO 2512/2514 5SM -DZ BR BKN008
BKN020
FM251400 24020G40KT P6SM SCT020
BECMG 2515/2517 24020G35KT
RMK FCST BASED ON AUTO OBS. NXT FCST BY 251400Z=

KITCHENER/WATERLOO/ON    (show WxCam)

SPECI CYKF 251141Z AUTO 10010G15KT 1 3/4SM -RA BR OVC002 02/02 A2953
RMK SLP012=
SPECI CYKF 251138Z AUTO 10011KT 2 1/4SM -RA BR OVC002 02/02 A2953 RMK
VIS VRB 1 3/4-3 PRESFR SLP012=
SPECI CYKF 251128Z AUTO 10009KT 3SM -RA BR OVC002 01/01 A2954 RMK
SLP016=
SPECI CYKF 251124Z AUTO 10007KT 2SM -RA BR OVC002 01/01 A2955 RMK
SLP018=
METAR CYKF 251100Z AUTO 09010KT 1 1/4SM -RA BR OVC002 01/01 A2956 RMK
PRESFR SLP020=
SPECI CYKF 251053Z AUTO 09011G16KT 1 3/4SM -RA BR OVC002 01/01 A2956
RMK PRESFR SLP021=
SPECI CYKF 251049Z AUTO 10011G16KT 2 1/4SM BR OVC002 01/01 A2957 RMK
SLP025=
SPECI CYKF 251020Z AUTO 09013KT 2SM -RA BR OVC002 01/01 A2958 RMK
PRESFR SLP028=
SPECI CYKF 251014Z AUTO 09012G20KT 3/4SM -RA BR VV002 01/01 A2958 RMK
PRESFR SLP028=
METAR CYKF 251000Z AUTO 10012G19KT 1/2SM -RA FG VV002 01/01 A2960 RMK
PRESFR SLP035=
SPECI CYKF 250938Z AUTO 10017G24KT 1/2SM -RA FG VV002 01/01 A2963 RMK
SLP044=
SPECI CYKF 250930Z AUTO 10018G26KT 3/4SM -RA BR VV002 01/01 A2963 RMK
SLP047=
SPECI CYKF 250917Z AUTO 09020G25KT 1 3/4SM BR OVC003 01/01 A2965 RMK
PRESFR SLP051=
SPECI CYKF 250914Z AUTO 10018G25KT 2 1/4SM BR OVC003 01/01 A2965 RMK
PRESFR SLP052=
METAR CYKF 250900Z AUTO 10015G26KT 5SM BR OVC003 01/01 A2967 RMK
SLP057=

TAF CYKF 250738Z 2508/2520 09018G28KT 6SM -RA BR OVC007 TEMPO
2508/2510 2SM -FZRA BR OVC005
FM251000 12015KT 1SM -RA BR OVC003 TEMPO 2510/2515 3SM BR OVC006
BECMG 2513/2515 25015KT
FM251500 25025G40KT P6SM SCT020 TEMPO 2515/2516 FEW006 BKN020
BECMG 2517/2519 25020G30KT
RMK FCST BASED ON AUTO OBS. NXT FCST BY 251400Z=

HAMILTON/ON    

SPECI CYHM 251120Z 05010KT 1SM R12/4000VP6000FT/U -RA BR BKN002
OVC009 01/01 A2958 RMK FG3SF3SC2 SLP027=
METAR CYHM 251100Z 05012KT 1/2SM R12/2400FT/N -RA FG VV002 01/01
A2958 RMK FG8 PRESFR SLP027=
SPECI CYHM 251049Z 06011KT 1/2SM R12/2600FT/N -RA FG VV002 01/01
A2960 RMK FG8 SLP032=
METAR CYHM 251000Z 05010KT 1/2SM R12/1800FT/N FG VV002 01/01 A2964
RMK FG8 PRESFR SLP047=
METAR CYHM 250900Z 03011KT 1/2SM R12/2200FT/N FG VV002 01/01 A2968
RMK FG8 PRESRR SLP060=

TAF CYHM 251139Z 2512/2612 05010KT 1SM -RA BR BKN002 OVC010 TEMPO
2512/2514 4SM BR OVC010
BECMG 2512/2514 23015KT
FM251400 24020G40KT P6SM FEW015 SCT060 TEMPO 2514/2515 BKN015
OVC060
FM251700 24020G35KT P6SM FEW020
FM252000 24020G30KT P6SM SCT025
BECMG 2522/2524 24015G25KT
BECMG 2603/2605 24012KT
RMK NXT FCST BY 251800Z=

TORONTO/LESTER B. PEARSON INTL/ON    

METAR CYYZ 251100Z 09014G23KT 5SM -RA OVC004 02/01 A2961 RMK SC8
PRESFR SLP035=
SPECI CYYZ 251041Z 09015G24KT 6SM -RA OVC004 02/00 A2963 RMK SC8
PRESFR SLP042=
METAR CYYZ 251000Z 09019G26KT 6SM -RA OVC005 02/00 A2967 RMK SC8
PRESFR SLP056=
METAR CYYZ 250900Z 10016G25KT 6SM -RA OVC005 01/M00 A2973 RMK SC8
PRESRR SLP074=

TAF CYYZ 251139Z 2512/2618 09015G25KT 6SM -RA BR OVC004 TEMPO
2512/2515 2SM BR OVC003
BECMG 2514/2515 25015KT
FM251500 25015KT P6SM SCT005 BKN015 TEMPO 2515/2516 SCT015
FM251600 25020G35KT P6SM FEW020
FM252100 25020G30KT P6SM FEW025
BECMG 2522/2524 25018KT
FM260300 26012KT P6SM FEW030
BECMG 2615/2617 27010G20KT
RMK NXT FCST BY 251500Z=
Your time UTC time
Weather data provided by Environment Canada and NAV CANADA